Time;durP1;ratioP1;P1;durP2;ratioP2;P2;SDS_P1;SDS_P2;PMS_P1;PMS_P2;Temp;Humidity;BMP_temperature;BMP_pressure;BME280_temperature;BME280_humidity;BME280_pressure;Samples;Min_cycle;Max_cycle;Signal;HPM_P1;HPM_P2
2021/12/01 00:00:57;;;;;;;11.13;2.25;;;;;;;4.74;85.00;99035.47;5015726;28;20033;-68
2021/12/01 00:03:22;;;;;;;14.45;2.75;;;;;;;4.74;85.35;99033.69;5014900;28;20105;-67
2021/12/01 00:05:49;;;;;;;6.90;1.65;;;;;;;4.73;85.03;99024.25;5009483;28;20391;-67
2021/12/01 00:08:15;;;;;;;14.13;1.98;;;;;;;4.71;84.98;99026.13;5006984;28;20042;-69
2021/12/01 00:10:41;;;;;;;8.93;1.45;;;;;;;4.75;85.05;99025.00;5018110;28;20041;-69
2021/12/01 00:13:10;;;;;;;14.15;2.38;;;;;;;4.73;85.23;99023.41;5018039;28;20529;-67
2021/12/01 00:15:36;;;;;;;9.73;1.75;;;;;;;4.72;85.36;99016.56;5017426;28;20392;-69
2021/12/01 00:18:02;;;;;;;12.60;2.10;;;;;;;4.72;85.54;99019.16;5020753;28;20117;-68
2021/12/01 00:20:28;;;;;;;13.13;1.90;;;;;;;4.73;85.31;99016.47;5018750;28;20389;-66
2021/12/01 00:22:55;;;;;;;9.82;1.80;;;;;;;4.70;85.60;99010.63;5015420;28;20026;-68
2021/12/01 00:25:22;;;;;;;7.88;1.90;;;;;;;4.71;85.46;99001.91;5015768;28;20402;-68
2021/12/01 00:27:50;;;;;;;8.63;1.70;;;;;;;4.70;85.73;98998.47;5019798;28;20109;-67
2021/12/01 00:30:16;;;;;;;7.78;1.40;;;;;;;4.70;85.96;98992.44;5016034;28;20057;-68
2021/12/01 00:32:41;;;;;;;7.22;1.25;;;;;;;4.71;86.10;98992.38;5012549;28;20100;-72
2021/12/01 00:35:08;;;;;;;15.05;1.63;;;;;;;4.71;85.62;98991.50;5009828;28;20408;-68
2021/12/01 00:37:34;;;;;;;6.60;1.40;;;;;;;4.68;86.19;99002.94;5015917;28;20038;-68
2021/12/01 00:39:59;;;;;;;7.57;1.60;;;;;;;4.68;86.08;98989.13;5019694;28;20037;-68
2021/12/01 00:42:25;;;;;;;4.82;1.23;;;;;;;4.66;86.60;98985.78;5013328;28;20487;-66
2021/12/01 00:44:56;;;;;;;7.20;1.52;;;;;;;4.67;87.06;98990.03;5013551;28;20563;-67
2021/12/01 00:47:30;;;;;;;5.28;1.70;;;;;;;4.67;86.93;98987.44;5020772;28;20032;-65
2021/12/01 00:49:55;;;;;;;7.13;1.65;;;;;;;4.67;87.44;98983.09;5009507;28;20553;-66
2021/12/01 00:52:20;;;;;;;10.95;1.70;;;;;;;4.69;88.07;98975.22;5021093;28;20029;-67
2021/12/01 00:54:46;;;;;;;6.35;1.40;;;;;;;4.66;88.39;98967.63;5016708;28;20040;-68
2021/12/01 00:57:11;;;;;;;6.18;1.75;;;;;;;4.70;88.83;98969.91;5021231;28;20036;-68
2021/12/01 00:59:36;;;;;;;7.55;1.55;;;;;;;4.67;89.25;98969.28;5010999;28;20470;-70
2021/12/01 01:02:02;;;;;;;6.70;1.25;;;;;;;4.66;90.11;98965.84;5015395;28;20030;-68
2021/12/01 01:04:27;;;;;;;6.50;1.50;;;;;;;4.65;90.48;98955.56;5014643;28;20053;-67
2021/12/01 01:06:53;;;;;;;11.85;1.85;;;;;;;4.62;91.23;98954.00;5009841;28;20025;-67
2021/12/01 01:09:18;;;;;;;6.47;1.70;;;;;;;4.60;91.71;98955.88;5017926;28;20076;-67
2021/12/01 01:17:19;;;;;;;6.68;1.70;;;;;;;4.61;92.73;98941.97;5009384;28;20081;-69
2021/12/01 01:19:45;;;;;;;7.32;2.30;;;;;;;4.62;92.82;98933.22;5018807;28;20050;-65
2021/12/01 01:22:11;;;;;;;9.57;1.98;;;;;;;4.66;92.80;98936.47;5001555;28;20043;-70
2021/12/01 01:24:37;;;;;;;10.02;2.17;;;;;;;4.67;93.03;98919.94;5006396;28;20026;-68
2021/12/01 01:27:02;;;;;;;5.70;1.50;;;;;;;4.66;93.13;98916.53;5017372;28;20025;-68
2021/12/01 01:29:33;;;;;;;12.20;1.92;;;;;;;4.67;93.30;98910.38;5013217;28;20038;-68
2021/12/01 01:31:59;;;;;;;9.30;2.25;;;;;;;4.70;93.60;98904.19;5012328;28;20026;-68
2021/12/01 01:34:25;;;;;;;12.65;2.20;;;;;;;4.72;93.73;98894.53;5017787;28;20387;-69
2021/12/01 01:36:51;;;;;;;6.72;2.00;;;;;;;4.73;94.20;98898.78;5015043;28;20041;-66
2021/12/01 01:39:17;;;;;;;7.03;2.10;;;;;;;4.73;94.10;98898.78;5016750;28;20014;-67
2021/12/01 01:41:43;;;;;;;9.25;2.20;;;;;;;4.75;94.12;98895.16;5013448;28;20092;-65
2021/12/01 01:44:08;;;;;;;6.13;1.88;;;;;;;4.78;94.29;98897.56;5009981;28;20026;-66
2021/12/01 01:46:35;;;;;;;7.95;2.50;;;;;;;4.79;94.79;98891.44;5016469;28;20042;-67
2021/12/01 01:51:50;;;;;;;7.45;2.30;;;;;;;4.81;95.07;98881.75;4982758;28;20060;-66
2021/12/01 01:54:17;;;;;;;12.27;2.92;;;;;;;4.84;95.04;98876.38;5023472;28;20025;-66
2021/12/01 01:56:43;;;;;;;7.97;2.30;;;;;;;4.83;95.42;98872.13;5011094;28;20034;-68
2021/12/01 01:59:10;;;;;;;9.07;2.90;;;;;;;4.82;95.47;98870.47;5021599;28;20074;-67
2021/12/01 02:01:46;;;;;;;6.57;2.67;;;;;;;4.85;95.77;98869.41;5007454;28;20037;-69
2021/12/01 02:04:15;;;;;;;9.95;3.13;;;;;;;4.85;95.87;98859.84;5014462;28;20056;-65
2021/12/01 02:06:40;;;;;;;9.27;3.40;;;;;;;4.87;96.26;98851.97;5012137;28;20034;-67
2021/12/01 02:09:07;;;;;;;11.85;2.78;;;;;;;4.88;96.24;98855.41;5009879;28;20072;-67
2021/12/01 02:11:32;;;;;;;7.20;2.47;;;;;;;4.89;96.27;98850.09;5016977;28;20068;-71
2021/12/01 02:13:58;;;;;;;5.85;2.50;;;;;;;4.94;96.28;98847.22;5019715;28;20502;-69
2021/12/01 02:16:24;;;;;;;6.53;2.85;;;;;;;4.95;96.37;98838.47;5017281;28;20044;-66
2021/12/01 02:18:50;;;;;;;8.60;2.83;;;;;;;4.93;96.80;98829.94;5010186;28;20042;-67
2021/12/01 02:21:27;;;;;;;8.35;2.88;;;;;;;4.94;96.81;98816.03;5015423;28;20029;-69
2021/12/01 02:24:14;;;;;;;8.70;2.88;;;;;;;4.97;96.52;98810.63;5009747;28;20099;-69
2021/12/01 02:26:44;;;;;;;7.07;2.70;;;;;;;4.96;96.52;98807.19;5017589;28;20038;-66
2021/12/01 02:29:12;;;;;;;5.32;2.17;;;;;;;4.94;97.03;98801.28;5005676;28;20029;-67
2021/12/01 02:31:38;;;;;;;6.25;2.78;;;;;;;4.97;97.05;98808.88;5018816;28;20037;-66
2021/12/01 02:34:06;;;;;;;5.03;2.78;;;;;;;5.00;97.04;98787.88;5010833;28;20034;-67
2021/12/01 02:36:32;;;;;;;7.35;2.75;;;;;;;5.05;96.89;98783.22;5012493;28;20030;-65
2021/12/01 02:38:58;;;;;;;8.45;3.80;;;;;;;5.08;96.89;98779.56;5012736;28;20026;-67
2021/12/01 02:41:29;;;;;;;8.35;3.80;;;;;;;5.09;96.85;98769.06;5016373;28;20030;-68
2021/12/01 02:43:57;;;;;;;8.73;3.42;;;;;;;5.09;96.99;98771.66;5014443;28;20613;-68
2021/12/01 02:46:22;;;;;;;8.90;3.28;;;;;;;5.13;96.79;98766.25;5021576;28;20038;-69
2021/12/01 02:48:49;;;;;;;7.35;3.20;;;;;;;5.14;97.05;98760.94;5014526;28;20555;-67
2021/12/01 02:51:14;;;;;;;6.13;2.90;;;;;;;5.16;96.51;98755.66;5015034;28;20018;-65
2021/12/01 02:53:41;;;;;;;9.07;3.63;;;;;;;5.19;96.28;98750.22;5011045;28;20042;-68
2021/12/01 02:56:07;;;;;;;5.75;2.85;;;;;;;5.18;96.19;98745.97;5013425;28;20499;-67
2021/12/01 02:58:38;;;;;;;6.35;3.28;;;;;;;5.15;96.58;98738.41;5008654;28;20038;-71
2021/12/01 03:01:11;;;;;;;10.68;4.53;;;;;;;5.18;96.46;98739.00;5021200;28;20072;-67
2021/12/01 03:03:38;;;;;;;6.22;3.22;;;;;;;5.19;96.27;98730.31;5016561;28;20475;-66
2021/12/01 03:06:05;;;;;;;7.25;3.33;;;;;;;5.18;96.50;98714.81;5018588;28;20402;-67
2021/12/01 03:08:31;;;;;;;10.05;4.50;;;;;;;5.18;96.14;98713.03;5019203;28;20049;-66
2021/12/01 03:10:57;;;;;;;10.98;4.63;;;;;;;5.20;96.18;98711.16;5010461;28;20046;-67
2021/12/01 03:13:23;;;;;;;12.23;4.88;;;;;;;5.25;96.30;98709.06;5015387;28;20407;-68
2021/12/01 03:15:49;;;;;;;9.35;4.30;;;;;;;5.25;95.60;98705.66;5016839;28;20034;-69
2021/12/01 03:18:16;;;;;;;11.35;3.92;;;;;;;5.20;96.17;98695.59;5023677;28;20013;-67
2021/12/01 03:20:42;;;;;;;7.20;4.13;;;;;;;5.20;96.05;98692.16;5019154;28;20103;-67
2021/12/01 03:23:09;;;;;;;10.68;4.60;;;;;;;5.21;96.06;98684.25;5008750;28;20033;-65
2021/12/01 03:25:34;;;;;;;6.28;3.08;;;;;;;5.25;95.58;98677.88;5011614;28;20045;-63
2021/12/01 03:28:00;;;;;;;5.90;3.35;;;;;;;5.30;94.95;98674.94;5014025;28;20033;-66
2021/12/01 03:30:26;;;;;;;4.18;2.53;;;;;;;5.31;94.99;98671.44;5011514;28;20602;-67
2021/12/01 03:32:52;;;;;;;4.82;2.70;;;;;;;5.29;94.88;98662.91;5014547;28;20025;-69
2021/12/01 03:35:18;;;;;;;7.30;2.55;;;;;;;5.26;94.79;98656.16;5015651;28;20038;-69
2021/12/01 03:37:46;;;;;;;4.28;2.13;;;;;;;5.28;94.64;98649.09;5009435;28;20585;-65
2021/12/01 03:40:13;;;;;;;6.65;2.05;;;;;;;5.32;94.32;98631.50;5018432;28;20614;-65
2021/12/01 03:42:40;;;;;;;3.88;2.10;;;;;;;5.31;94.19;98632.47;5016021;28;20553;-66
2021/12/01 03:45:06;;;;;;;3.65;2.15;;;;;;;5.31;94.34;98630.69;5013603;28;20066;-67
2021/12/01 03:47:32;;;;;;;3.83;2.20;;;;;;;5.30;94.32;98622.97;5010778;28;20116;-65
2021/12/01 03:49:58;;;;;;;4.05;2.10;;;;;;;5.27;94.06;98618.03;5018957;28;20116;-66
2021/12/01 03:52:24;;;;;;;3.80;1.77;;;;;;;5.28;94.43;98609.28;5014813;28;20022;-67
2021/12/01 03:54:51;;;;;;;3.53;1.98;;;;;;;5.31;94.39;98609.06;5007040;28;20049;-68
2021/12/01 03:57:18;;;;;;;2.78;1.70;;;;;;;5.31;93.74;98599.50;5051019;22;20052;-67
2021/12/01 03:59:43;;;;;;;4.75;2.67;;;;;;;5.36;93.76;98593.13;5046038;28;20037;-70
2021/12/01 04:02:09;;;;;;;4.03;2.08;;;;;;;5.32;93.51;98595.13;5046704;28;20032;-69
2021/12/01 04:04:35;;;;;;;4.03;2.00;;;;;;;5.37;93.79;98594.78;5047431;28;20444;-68
2021/12/01 04:07:01;;;;;;;3.55;1.77;;;;;;;5.34;93.78;98598.47;5047536;28;20501;-68
2021/12/01 04:09:28;;;;;;;4.05;1.92;;;;;;;5.31;94.52;98583.09;5047279;28;20111;-69
2021/12/01 04:11:53;;;;;;;3.80;1.95;;;;;;;5.30;94.26;98589.19;5046839;28;20021;-69
2021/12/01 04:14:19;;;;;;;2.75;1.65;;;;;;;5.32;94.41;98580.38;5047503;28;20082;-68
2021/12/01 04:16:45;;;;;;;7.18;1.45;;;;;;;5.33;94.05;98579.41;5047335;28;20152;-68
2021/12/01 04:19:10;;;;;;;3.47;1.58;;;;;;;5.36;94.13;98578.38;5045429;28;20044;-68
2021/12/01 04:21:37;;;;;;;3.65;1.70;;;;;;;5.31;94.17;98576.13;5046950;28;20094;-68
2021/12/01 04:24:03;;;;;;;2.47;1.40;;;;;;;5.33;94.37;98576.00;5047143;28;20024;-69
2021/12/01 04:26:32;;;;;;;3.67;1.65;;;;;;;5.36;94.02;98569.75;5047358;28;20048;-69
2021/12/01 04:28:57;;;;;;;;;;;;;;;5.32;94.13;98572.56;5047940;28;20137;-69
2021/12/01 04:31:24;;;;;;;3.72;1.42;;;;;;;5.36;94.22;98562.78;5047381;28;20315;-68
2021/12/01 04:33:49;;;;;;;1.75;1.05;;;;;;;5.36;94.12;98562.78;5045536;28;20033;-67
2021/12/01 04:36:17;;;;;;;3.95;1.40;;;;;;;5.34;94.69;98562.06;5047742;28;20028;-67
2021/12/01 04:38:43;;;;;;;3.28;1.25;;;;;;;5.35;94.57;98563.72;5047132;28;20036;-69
2021/12/01 04:41:09;;;;;;;4.22;1.10;;;;;;;5.39;94.71;98559.97;5047278;28;20353;-68
2021/12/01 04:43:37;;;;;;;3.63;1.15;;;;;;;5.41;94.08;98555.47;5045397;28;20051;-69
2021/12/01 04:46:04;;;;;;;2.83;1.20;;;;;;;5.41;94.69;98550.25;5050561;28;20523;-68
2021/12/01 04:48:30;;;;;;;1.50;0.90;;;;;;;5.44;94.45;98546.63;5044487;28;20294;-69
2021/12/01 04:50:56;;;;;;;1.70;0.90;;;;;;;5.45;93.90;98541.31;5047705;28;20155;-69
2021/12/01 04:53:21;;;;;;;3.17;0.77;;;;;;;5.42;94.04;98536.34;5046951;28;20482;-68
2021/12/01 04:55:47;;;;;;;1.08;0.70;;;;;;;5.44;94.19;98529.25;5045807;28;20413;-68
2021/12/01 04:58:12;;;;;;;0.77;0.60;;;;;;;5.45;94.36;98537.88;5045686;28;20036;-67
2021/12/01 05:00:38;;;;;;;3.03;0.88;;;;;;;5.47;93.97;98529.03;5046831;28;20040;-64
2021/12/01 05:03:07;;;;;;;1.10;0.75;;;;;;;5.53;94.19;98527.75;5045770;28;20046;-67
2021/12/01 05:05:32;;;;;;;2.30;0.80;;;;;;;5.50;93.87;98523.59;5044526;28;20204;-68
2021/12/01 05:07:58;;;;;;;1.23;0.70;;;;;;;5.53;93.96;98517.34;5042822;28;20558;-67
2021/12/01 05:10:24;;;;;;;0.47;0.47;;;;;;;5.52;93.75;98507.88;5043531;28;20041;-68
2021/12/01 05:12:50;;;;;;;1.50;0.80;;;;;;;5.53;93.40;98501.75;5046728;28;20029;-68
2021/12/01 05:15:15;;;;;;;1.27;0.65;;;;;;;5.54;92.88;98506.00;5047109;28;20470;-68
2021/12/01 05:17:41;;;;;;;4.78;1.50;;;;;;;5.57;93.08;98498.81;5046432;28;20045;-68
2021/12/01 05:20:08;;;;;;;2.75;1.30;;;;;;;5.61;92.46;98494.22;5043759;28;20028;-68
2021/12/01 05:22:34;;;;;;;3.83;1.80;;;;;;;5.62;91.96;98492.44;5044193;28;20143;-67
2021/12/01 05:25:01;;;;;;;0.98;0.70;;;;;;;5.64;91.84;98490.56;5045740;28;20033;-68
2021/12/01 05:27:26;;;;;;;0.73;0.60;;;;;;;5.65;91.55;98484.41;5046578;28;20097;-69
2021/12/01 05:29:52;;;;;;;1.85;0.47;;;;;;;5.68;91.73;98478.97;5046386;28;20035;-69
2021/12/01 05:32:18;;;;;;;7.40;1.90;;;;;;;5.69;91.74;98478.03;5045621;28;20086;-68
2021/12/01 05:34:43;;;;;;;0.85;0.50;;;;;;;5.68;91.98;98473.78;5046583;28;20033;-69
2021/12/01 05:37:09;;;;;;;0.50;0.50;;;;;;;5.68;91.67;98469.41;5047248;28;20057;-70
2021/12/01 05:39:35;;;;;;;2.13;0.70;;;;;;;5.68;91.58;98466.81;5046892;28;20064;-67
2021/12/01 05:42:00;;;;;;;4.78;0.75;;;;;;;5.70;91.01;98477.06;5046398;28;20025;-67
2021/12/01 05:44:26;;;;;;;0.90;0.65;;;;;;;5.72;90.74;98470.81;5028047;28;20055;-68
2021/12/01 05:46:52;;;;;;;3.08;1.38;;;;;;;5.75;90.53;98464.56;5034772;28;20039;-70
2021/12/01 05:49:17;;;;;;;2.38;1.05;;;;;;;5.75;89.91;98460.19;5046476;28;20578;-69
2021/12/01 05:51:43;;;;;;;2.65;1.30;;;;;;;5.73;90.41;98448.25;5046258;28;20383;-69
2021/12/01 05:54:09;;;;;;;2.72;1.00;;;;;;;5.76;89.71;98440.22;5046778;28;20031;-68
2021/12/01 05:56:34;;;;;;;1.05;0.70;;;;;;;5.77;89.62;98440.09;5043639;28;20053;-68
2021/12/01 05:59:00;;;;;;;2.45;0.82;;;;;;;5.78;89.64;98435.72;5043709;28;20028;-68
2021/12/01 06:01:25;;;;;;;1.58;0.73;;;;;;;5.76;89.78;98430.63;5045014;28;20029;-68
2021/12/01 06:03:51;;;;;;;1.33;0.88;;;;;;;5.76;89.33;98424.63;5045553;28;20566;-69
2021/12/01 06:06:16;;;;;;;1.13;0.70;;;;;;;5.77;89.50;98427.06;5045923;28;20028;-69
2021/12/01 06:08:42;;;;;;;3.10;1.33;;;;;;;5.77;89.21;98419.28;5041724;28;20526;-69
2021/12/01 06:11:08;;;;;;;4.72;1.65;;;;;;;5.79;88.91;98409.59;5043126;28;20041;-70
2021/12/01 06:13:33;;;;;;;4.10;1.65;;;;;;;5.80;88.31;98408.66;5046819;28;20033;-68
2021/12/01 06:15:59;;;;;;;5.63;2.10;;;;;;;5.80;88.79;98400.84;5045789;28;20489;-68
2021/12/01 06:18:24;;;;;;;3.55;1.38;;;;;;;5.80;88.67;98398.25;5045956;28;20052;-70
2021/12/01 06:20:50;;;;;;;1.77;1.13;;;;;;;5.82;88.71;98388.56;5046471;28;20017;-68
2021/12/01 06:23:15;;;;;;;1.70;0.80;;;;;;;5.78;88.79;98387.16;5041206;28;20067;-69
2021/12/01 06:25:41;;;;;;;5.53;1.20;;;;;;;5.79;88.05;98390.56;5046303;28;20041;-68
2021/12/01 06:28:07;;;;;;;1.80;1.23;;;;;;;5.81;88.45;98380.88;5045820;28;20091;-68
2021/12/01 06:30:34;;;;;;;3.97;1.15;;;;;;;5.79;87.64;98382.78;5043884;28;20555;-70
2021/12/01 06:33:00;;;;;;;1.80;0.80;;;;;;;5.79;87.77;98386.19;5040432;28;20021;-68
2021/12/01 06:35:25;;;;;;;2.15;1.02;;;;;;;5.80;87.03;98385.25;5045745;28;20029;-70
2021/12/01 06:37:53;;;;;;;2.38;0.93;;;;;;;5.80;87.26;98389.63;5049209;28;20048;-69
2021/12/01 06:40:19;;;;;;;2.38;0.95;;;;;;;5.81;87.47;98394.69;5037775;28;20102;-69
2021/12/01 06:42:44;;;;;;;0.90;0.68;;;;;;;5.81;87.22;98410.28;5048932;28;20136;-69
2021/12/01 06:45:12;;;;;;;1.27;0.90;;;;;;;5.83;87.03;98407.59;5048770;28;20331;-67
2021/12/01 06:47:39;;;;;;;1.85;0.80;;;;;;;5.85;87.05;98410.06;5050649;28;20043;-69
2021/12/01 06:50:06;;;;;;;5.03;0.85;;;;;;;5.83;86.75;98405.81;5050713;28;20067;-68
2021/12/01 06:52:31;;;;;;;0.68;0.68;;;;;;;5.82;86.82;98416.31;5049591;28;20040;-69
2021/12/01 06:54:58;;;;;;;0.70;0.60;;;;;;;5.85;86.17;98421.28;5049938;28;20033;-69
2021/12/01 06:57:24;;;;;;;0.73;0.70;;;;;;;5.86;86.75;98422.97;5048294;28;20146;-69
2021/12/01 06:59:50;;;;;;;1.40;0.90;;;;;;;5.85;87.11;98423.06;5049530;28;20118;-68
2021/12/01 07:02:17;;;;;;;2.20;0.75;;;;;;;5.80;88.05;98428.63;5049023;28;20473;-68
2021/12/01 07:04:43;;;;;;;10.90;1.00;;;;;;;5.79;88.28;98417.41;5047677;28;20060;-69
2021/12/01 07:07:08;;;;;;;2.00;1.10;;;;;;;5.77;88.09;98411.47;5046861;28;20052;-69
2021/12/01 07:09:33;;;;;;;4.95;1.30;;;;;;;5.76;88.36;98393.41;5049611;28;20454;-69
2021/12/01 07:11:59;;;;;;;14.25;2.25;;;;;;;5.80;89.72;98400.03;5049025;28;20025;-68
2021/12/01 07:14:24;;;;;;;7.53;2.13;;;;;;;5.90;88.67;98394.94;5048887;28;20029;-71
2021/12/01 07:16:50;;;;;;;5.82;2.10;;;;;;;5.89;88.75;98386.28;5048842;28;20081;-68
2021/12/01 07:19:15;;;;;;;6.63;2.08;;;;;;;5.99;89.20;98376.03;5049004;28;20045;-71
2021/12/01 07:21:41;;;;;;;11.48;1.70;;;;;;;5.96;88.36;98364.09;5049181;28;20044;-69
2021/12/01 07:24:07;;;;;;;2.10;0.80;;;;;;;5.93;87.38;98359.16;5049436;28;20013;-70
2021/12/01 07:26:33;;;;;;;3.10;1.40;;;;;;;5.91;87.85;98349.78;5047250;28;20183;-69
2021/12/01 07:28:59;;;;;;;5.90;1.40;;;;;;;5.93;88.03;98350.50;5050028;28;20133;-69
2021/12/01 07:31:25;;;;;;;3.95;1.23;;;;;;;5.91;88.06;98339.38;5048646;28;20498;-68
2021/12/01 07:33:50;;;;;;;4.55;1.65;;;;;;;5.91;88.18;98339.38;5047840;28;20490;-69
2021/12/01 07:36:17;;;;;;;12.40;2.50;;;;;;;5.90;88.54;98337.72;5046954;28;20406;-67
2021/12/01 07:38:43;;;;;;;12.65;2.30;;;;;;;5.88;88.29;98326.59;5047941;28;20037;-70
2021/12/01 07:41:08;;;;;;;3.60;1.38;;;;;;;5.86;87.95;98318.94;5047926;28;20056;-69
2021/12/01 07:43:34;;;;;;;7.32;2.08;;;;;;;5.89;87.99;98323.03;5047476;28;20049;-68
2021/12/01 07:46:01;;;;;;;6.25;1.60;;;;;;;5.90;87.98;98304.72;5046486;28;20143;-69
2021/12/01 07:48:27;;;;;;;12.23;2.47;;;;;;;5.91;88.13;98306.38;5047975;28;20458;-69
2021/12/01 07:50:53;;;;;;;1.75;1.00;;;;;;;5.92;87.63;98302.00;5048294;28;20047;-70
2021/12/01 07:53:18;;;;;;;4.25;1.35;;;;;;;5.97;86.69;98292.06;5047675;28;20037;-67
2021/12/01 07:55:44;;;;;;;1.50;0.90;;;;;;;6.02;85.94;98290.78;5045776;28;20128;-68
2021/12/01 07:58:09;;;;;;;4.05;1.70;;;;;;;6.06;86.27;98289.56;5044047;28;20155;-67
2021/12/01 08:00:35;;;;;;;1.77;1.10;;;;;;;6.09;85.88;98274.69;5043119;28;20032;-68
2021/12/01 08:03:00;;;;;;;1.20;0.80;;;;;;;6.12;85.31;98274.41;5045749;28;20017;-69
2021/12/01 08:05:26;;;;;;;2.03;0.90;;;;;;;6.16;85.02;98265.44;5047282;28;20106;-68
2021/12/01 08:07:51;;;;;;;1.27;0.95;;;;;;;6.17;84.54;98260.09;5045335;28;20632;-68
2021/12/01 08:10:17;;;;;;;1.35;1.00;;;;;;;6.24;84.45;98257.81;5046993;28;20040;-67
2021/12/01 08:12:42;;;;;;;2.25;1.20;;;;;;;6.24;84.35;98250.00;5047457;28;20029;-68
2021/12/01 08:15:09;;;;;;;1.17;0.93;;;;;;;6.24;84.19;98245.63;5046535;28;20033;-69
2021/12/01 08:17:34;;;;;;;0.85;0.85;;;;;;;6.24;83.85;98232.59;5045521;28;20025;-67
2021/12/01 08:20:00;;;;;;;1.58;1.10;;;;;;;6.25;84.67;98228.22;5046942;28;20075;-68
2021/12/01 08:22:26;;;;;;;2.13;1.17;;;;;;;6.27;83.56;98224.56;5045374;28;20021;-67
2021/12/01 08:24:52;;;;;;;1.80;1.10;;;;;;;6.28;83.12;98214.97;5046289;28;20102;-69
2021/12/01 08:27:17;;;;;;;1.10;1.00;;;;;;;6.29;83.89;98208.81;5047653;28;20029;-66
2021/12/01 08:29:43;;;;;;;3.10;1.65;;;;;;;6.31;83.98;98191.31;5046706;28;20048;-68
2021/12/01 08:32:08;;;;;;;2.00;1.10;;;;;;;6.31;83.84;98196.50;5047459;28;20170;-68
2021/12/01 08:34:34;;;;;;;1.38;1.10;;;;;;;6.32;82.75;98192.13;5045195;28;20041;-67
2021/12/01 08:36:59;;;;;;;1.50;0.80;;;;;;;6.36;82.66;98191.72;5047328;28;20033;-68
2021/12/01 08:39:24;;;;;;;1.58;0.90;;;;;;;6.37;82.84;98169.94;5047598;28;20392;-69
2021/12/01 08:41:50;;;;;;;1.73;0.90;;;;;;;6.38;82.94;98170.75;5047399;28;20024;-68
2021/12/01 08:44:16;;;;;;;2.63;1.00;;;;;;;6.38;82.28;98183.78;5045520;28;20119;-69
2021/12/01 08:46:41;;;;;;;1.42;0.98;;;;;;;6.39;82.49;98165.44;5045773;28;20040;-68
2021/12/01 08:49:07;;;;;;;1.95;1.02;;;;;;;6.38;81.92;98182.03;5045141;28;20616;-68
2021/12/01 08:51:33;;;;;;;1.52;1.00;;;;;;;6.38;82.07;98183.78;5046972;28;20033;-67
2021/12/01 08:53:58;;;;;;;1.88;1.10;;;;;;;6.41;82.75;98175.72;5043479;28;20032;-66
2021/12/01 08:56:24;;;;;;;1.35;0.88;;;;;;;6.40;82.10;98174.06;5045530;28;20174;-67
2021/12/01 08:58:49;;;;;;;2.08;1.10;;;;;;;6.40;82.26;98172.28;5044091;28;20037;-71
2021/12/01 09:01:16;;;;;;;1.67;1.23;;;;;;;6.43;82.43;98174.66;5045963;28;20417;-69
2021/12/01 09:03:41;;;;;;;1.65;0.90;;;;;;;6.44;82.02;98173.69;5044146;28;20499;-69
2021/12/01 09:06:07;;;;;;;1.10;0.90;;;;;;;6.46;82.46;98173.56;5047082;28;20032;-68
2021/12/01 09:08:33;;;;;;;1.10;0.82;;;;;;;6.45;81.91;98167.56;5043962;28;20625;-68
2021/12/01 09:11:02;;;;;;;2.83;0.90;;;;;;;6.47;82.36;98159.59;5041608;28;20048;-68
2021/12/01 09:13:29;;;;;;;1.13;0.90;;;;;;;6.46;82.01;98158.78;5044313;28;20029;-68
2021/12/01 09:15:56;;;;;;;1.20;0.88;;;;;;;6.47;81.94;98151.78;5045679;28;20640;-69
2021/12/01 09:18:23;;;;;;;2.15;1.15;;;;;;;6.48;81.35;98148.22;5044234;28;20036;-68
2021/12/01 09:20:49;;;;;;;2.38;1.00;;;;;;;6.50;81.68;98149.75;5045606;28;20021;-68
2021/12/01 09:23:15;;;;;;;1.88;1.02;;;;;;;6.53;81.29;98149.50;5045238;28;20025;-68
2021/12/01 09:25:41;;;;;;;1.48;0.85;;;;;;;6.52;81.72;98155.63;5046487;28;20039;-68
2021/12/01 09:28:06;;;;;;;2.83;1.17;;;;;;;6.51;82.08;98154.00;5044811;28;20112;-68
2021/12/01 09:30:32;;;;;;;2.70;1.00;;;;;;;6.52;81.28;98147.81;5044708;28;20108;-67
2021/12/01 09:32:57;;;;;;;2.65;1.10;;;;;;;6.53;81.47;98143.47;5046397;28;20104;-67
2021/12/01 09:35:23;;;;;;;4.63;1.90;;;;;;;6.52;81.68;98150.44;5046535;28;20035;-68
2021/12/01 09:37:49;;;;;;;1.42;1.00;;;;;;;6.53;81.26;98143.47;5049099;28;20064;-71
2021/12/01 09:40:17;;;;;;;2.33;1.25;;;;;;;6.56;81.21;98143.19;5047235;28;20029;-67
2021/12/01 09:42:45;;;;;;;3.80;1.33;;;;;;;6.55;81.17;98125.91;5043658;28;20029;-67
2021/12/01 09:45:11;;;;;;;7.68;1.50;;;;;;;6.54;80.90;98112.09;5044326;28;20254;-67
2021/12/01 09:47:37;;;;;;;1.45;0.90;;;;;;;6.61;80.89;98103.75;5044391;28;20095;-69
2021/12/01 09:50:03;;;;;;;13.48;3.28;;;;;;;6.65;81.72;98099.94;5044170;28;20049;-68
2021/12/01 09:52:29;;;;;;;2.50;1.20;;;;;;;6.67;81.45;98095.41;5043608;28;20096;-68
2021/12/01 09:54:54;;;;;;;5.22;1.80;;;;;;;6.69;81.13;98088.28;5045956;28;20184;-68
2021/12/01 09:57:19;;;;;;;6.18;1.70;;;;;;;6.70;81.04;98084.72;5044457;28;20107;-67
2021/12/01 09:59:46;;;;;;;12.52;1.92;;;;;;;6.76;80.81;98065.97;5043679;28;20016;-67
2021/12/01 10:02:12;;;;;;;3.78;1.30;;;;;;;6.80;79.90;98062.16;5046758;28;20042;-69
2021/12/01 10:04:37;;;;;;;5.97;1.40;;;;;;;6.88;80.29;98069.28;5045449;28;20040;-69
2021/12/01 10:07:21;;;;;;;3.65;1.42;;;;;;;6.88;79.65;98057.09;5044257;28;20154;-67
2021/12/01 10:09:52;;;;;;;3.25;1.30;;;;;;;7.00;79.88;98061.19;5045229;28;20032;-67
2021/12/01 10:12:18;;;;;;;1.90;1.08;;;;;;;7.00;78.97;98050.78;5050176;28;20013;-67
2021/12/01 10:14:48;;;;;;;1.08;0.88;;;;;;;7.01;78.55;98049.03;5049536;28;20049;-68
2021/12/01 10:17:15;;;;;;;1.75;1.08;;;;;;;7.02;78.95;98048.06;5049392;28;20029;-69
2021/12/01 10:19:41;;;;;;;2.97;1.10;;;;;;;7.08;79.61;98062.31;5049345;28;20033;-69
2021/12/01 10:22:10;;;;;;;1.27;0.85;;;;;;;7.08;78.92;98044.06;5049065;28;20029;-68
2021/12/01 10:24:39;;;;;;;1.77;1.00;;;;;;;7.06;78.38;98041.63;5049290;28;20033;-66
2021/12/01 10:27:14;;;;;;;1.13;0.90;;;;;;;7.01;77.90;98028.19;5047923;28;20075;-66
2021/12/01 10:29:43;;;;;;;1.50;0.95;;;;;;;7.02;77.41;98028.03;5046385;28;20119;-68
2021/12/01 10:32:08;;;;;;;2.03;1.00;;;;;;;7.02;77.71;98019.41;5042928;28;20452;-67
2021/12/01 10:34:41;;;;;;;2.70;1.25;;;;;;;7.02;77.74;98022.81;5045236;28;20487;-69
2021/12/01 10:37:31;;;;;;;3.97;0.93;;;;;;;7.00;78.40;98009.09;5049375;28;20044;-69
2021/12/01 10:40:24;;;;;;;1.13;0.90;;;;;;;7.02;78.15;98011.59;5048058;28;20029;-68
2021/12/01 10:43:05;;;;;;;2.83;0.90;;;;;;;7.07;77.78;98008.56;5046638;28;20094;-67
2021/12/01 10:45:40;;;;;;;5.82;0.90;;;;;;;7.03;78.08;97989.78;5047739;28;20355;-68
2021/12/01 10:48:09;;;;;;;5.70;1.08;;;;;;;7.04;78.01;97996.63;5046842;28;20025;-67
2021/12/01 10:50:40;;;;;;;6.78;1.48;;;;;;;7.06;78.84;97983.47;5049447;28;20049;-66
2021/12/01 10:53:09;;;;;;;4.97;1.17;;;;;;;7.03;78.18;97979.34;5048740;28;20473;-65
2021/12/01 10:55:51;;;;;;;1.77;1.00;;;;;;;7.04;78.77;97981.00;5048820;28;20366;-67
2021/12/01 10:58:20;;;;;;;3.80;1.30;;;;;;;7.03;78.68;97979.34;5044351;28;20037;-69
2021/12/01 11:00:51;;;;;;;2.13;1.00;;;;;;;7.05;78.40;97971.41;5046514;28;20037;-67
2021/12/01 11:03:25;;;;;;;2.10;1.00;;;;;;;7.08;78.80;97963.31;5048597;28;20028;-69
2021/12/01 11:05:54;;;;;;;3.75;1.17;;;;;;;7.12;79.32;97962.06;5048543;28;20037;-66
2021/12/01 11:08:26;;;;;;;2.08;1.00;;;;;;;7.14;78.40;97960.16;5046606;28;20532;-67
2021/12/01 11:10:53;;;;;;;1.45;0.95;;;;;;;7.14;77.86;97958.38;5046689;28;20049;-69
2021/12/01 11:13:20;;;;;;;0.73;0.68;;;;;;;7.16;78.13;97955.63;5047332;28;20599;-69
2021/12/01 11:15:51;;;;;;;1.60;0.80;;;;;;;7.15;78.10;97956.56;5046723;28;20044;-68
2021/12/01 11:18:22;;;;;;;4.95;1.08;;;;;;;7.15;78.35;97952.19;5047147;28;20086;-68
2021/12/01 11:20:50;;;;;;;1.40;0.80;;;;;;;7.15;78.68;97946.16;5046287;28;20099;-68
2021/12/01 11:23:30;;;;;;;1.27;0.75;;;;;;;7.16;78.49;97948.63;5044923;28;20505;-68
2021/12/01 11:26:05;;;;;;;2.00;1.00;;;;;;;7.17;78.21;97931.22;5048180;28;20037;-69
2021/12/01 11:28:33;;;;;;;1.15;0.88;;;;;;;7.20;77.47;97918.72;5048234;28;20083;-69
2021/12/01 11:31:06;;;;;;;3.60;1.23;;;;;;;7.24;78.19;97914.06;5047449;28;20155;-68
2021/12/01 11:33:32;;;;;;;2.55;1.08;;;;;;;7.27;78.31;97906.78;5040398;28;21257;-68
2021/12/01 11:36:02;;;;;;;1.38;0.82;;;;;;;7.32;78.07;97905.53;5038248;28;20021;-70
2021/12/01 11:38:28;;;;;;;2.25;0.77;;;;;;;7.36;78.07;97905.09;5039316;28;20137;-68
2021/12/01 11:40:55;;;;;;;2.47;0.90;;;;;;;7.39;78.00;97899.63;5040615;28;20040;-68
2021/12/01 11:43:24;;;;;;;1.00;0.73;;;;;;;7.41;77.96;97905.50;5040151;28;20067;-69
2021/12/01 11:45:50;;;;;;;2.78;1.50;;;;;;;7.42;77.73;97896.72;5038516;28;20047;-68
2021/12/01 11:48:22;;;;;;;1.35;0.73;;;;;;;7.43;77.59;97893.16;5041451;28;20021;-71